sensor_id;sensor_type;location;lat;lon;timestamp;temperature;humidity
19397;DHT22;9834;48.076;11.878;2022-08-20T00:00:42;16.40;99.90
19397;DHT22;9834;48.076;11.878;2022-08-20T00:03:15;16.40;99.90
19397;DHT22;9834;48.076;11.878;2022-08-20T00:05:45;16.50;99.90
19397;DHT22;9834;48.076;11.878;2022-08-20T00:08:14;16.50;99.90
19397;DHT22;9834;48.076;11.878;2022-08-20T00:10:43;16.50;99.90
19397;DHT22;9834;48.076;11.878;2022-08-20T00:13:14;16.50;99.90
19397;DHT22;9834;48.076;11.878;2022-08-20T00:15:42;16.50;99.90
19397;DHT22;9834;48.076;11.878;2022-08-20T00:18:09;16.50;99.90
19397;DHT22;9834;48.076;11.878;2022-08-20T00:20:39;16.50;99.90
19397;DHT22;9834;48.076;11.878;2022-08-20T00:23:07;16.50;99.90
19397;DHT22;9834;48.076;11.878;2022-08-20T00:25:36;16.60;99.90
19397;DHT22;9834;48.076;11.878;2022-08-20T00:28:05;16.60;99.90
19397;DHT22;9834;48.076;11.878;2022-08-20T00:30:33;16.60;99.90
19397;DHT22;9834;48.076;11.878;2022-08-20T00:33:04;16.50;99.90
19397;DHT22;9834;48.076;11.878;2022-08-20T00:35:36;16.50;99.90
19397;DHT22;9834;48.076;11.878;2022-08-20T00:38:05;16.50;99.90
19397;DHT22;9834;48.076;11.878;2022-08-20T00:40:35;16.40;99.90
19397;DHT22;9834;48.076;11.878;2022-08-20T00:43:07;16.40;99.90
19397;DHT22;9834;48.076;11.878;2022-08-20T00:45:49;16.40;99.90
19397;DHT22;9834;48.076;11.878;2022-08-20T00:48:20;16.30;99.90
19397;DHT22;9834;48.076;11.878;2022-08-20T00:50:47;16.40;99.90
19397;DHT22;9834;48.076;11.878;2022-08-20T00:53:14;16.40;99.90
19397;DHT22;9834;48.076;11.878;2022-08-20T00:55:42;16.40;99.90
19397;DHT22;9834;48.076;11.878;2022-08-20T00:58:11;16.40;99.90
19397;DHT22;9834;48.076;11.878;2022-08-20T01:00:41;16.30;99.90
19397;DHT22;9834;48.076;11.878;2022-08-20T01:03:12;16.30;99.90
19397;DHT22;9834;48.076;11.878;2022-08-20T01:05:43;16.40;99.90
19397;DHT22;9834;48.076;11.878;2022-08-20T01:08:11;16.40;99.90
19397;DHT22;9834;48.076;11.878;2022-08-20T01:10:40;16.40;99.90
19397;DHT22;9834;48.076;11.878;2022-08-20T01:13:18;16.50;99.90
19397;DHT22;9834;48.076;11.878;2022-08-20T01:15:48;16.40;99.90
19397;DHT22;9834;48.076;11.878;2022-08-20T01:18:19;16.40;99.90
19397;DHT22;9834;48.076;11.878;2022-08-20T01:20:50;16.40;99.90
19397;DHT22;9834;48.076;11.878;2022-08-20T01:23:22;16.40;99.90
19397;DHT22;9834;48.076;11.878;2022-08-20T01:25:56;16.40;99.90
19397;DHT22;9834;48.076;11.878;2022-08-20T01:28:29;16.40;99.90
19397;DHT22;9834;48.076;11.878;2022-08-20T01:30:58;16.40;99.90
19397;DHT22;9834;48.076;11.878;2022-08-20T01:33:25;16.40;99.90
19397;DHT22;9834;48.076;11.878;2022-08-20T01:35:55;16.40;99.90
19397;DHT22;9834;48.076;11.878;2022-08-20T01:38:22;16.40;99.90
19397;DHT22;9834;48.076;11.878;2022-08-20T01:41:03;16.30;99.90
19397;DHT22;9834;48.076;11.878;2022-08-20T01:43:33;16.30;99.90
19397;DHT22;9834;48.076;11.878;2022-08-20T01:46:00;16.30;99.90
19397;DHT22;9834;48.076;11.878;2022-08-20T01:48:27;16.30;99.90
19397;DHT22;9834;48.076;11.878;2022-08-20T01:51:00;16.30;99.90
19397;DHT22;9834;48.076;11.878;2022-08-20T01:53:31;16.30;99.90
19397;DHT22;9834;48.076;11.878;2022-08-20T01:56:00;16.30;99.90
19397;DHT22;9834;48.076;11.878;2022-08-20T01:58:27;16.30;99.90
19397;DHT22;9834;48.076;11.878;2022-08-20T02:00:56;16.30;99.90
19397;DHT22;9834;48.076;11.878;2022-08-20T02:03:23;16.30;99.90
19397;DHT22;9834;48.076;11.878;2022-08-20T02:05:51;16.30;99.90
19397;DHT22;9834;48.076;11.878;2022-08-20T02:08:21;16.40;99.90
19397;DHT22;9834;48.076;11.878;2022-08-20T02:10:48;16.40;99.90
19397;DHT22;9834;48.076;11.878;2022-08-20T02:13:17;16.40;99.90
19397;DHT22;9834;48.076;11.878;2022-08-20T02:15:44;16.40;99.90
19397;DHT22;9834;48.076;11.878;2022-08-20T02:18:12;16.50;99.90
19397;DHT22;9834;48.076;11.878;2022-08-20T02:20:41;16.50;99.90
19397;DHT22;9834;48.076;11.878;2022-08-20T02:23:10;16.50;99.90
19397;DHT22;9834;48.076;11.878;2022-08-20T02:25:38;16.50;99.90
19397;DHT22;9834;48.076;11.878;2022-08-20T02:28:09;16.60;99.90
19397;DHT22;9834;48.076;11.878;2022-08-20T02:30:40;16.60;99.90
19397;DHT22;9834;48.076;11.878;2022-08-20T02:33:10;16.60;99.90
19397;DHT22;9834;48.076;11.878;2022-08-20T02:35:39;16.60;99.90
19397;DHT22;9834;48.076;11.878;2022-08-20T02:38:07;16.60;99.90
19397;DHT22;9834;48.076;11.878;2022-08-20T02:40:34;16.60;99.90
19397;DHT22;9834;48.076;11.878;2022-08-20T02:43:02;16.70;99.90
19397;DHT22;9834;48.076;11.878;2022-08-20T02:45:31;16.70;99.90
19397;DHT22;9834;48.076;11.878;2022-08-20T02:48:10;16.70;99.90
19397;DHT22;9834;48.076;11.878;2022-08-20T02:50:42;16.70;99.90
19397;DHT22;9834;48.076;11.878;2022-08-20T02:53:09;16.70;99.90
19397;DHT22;9834;48.076;11.878;2022-08-20T02:55:36;16.70;99.90
19397;DHT22;9834;48.076;11.878;2022-08-20T02:58:04;16.70;99.90
19397;DHT22;9834;48.076;11.878;2022-08-20T03:00:31;16.70;99.90
19397;DHT22;9834;48.076;11.878;2022-08-20T03:02:59;16.70;99.90
19397;DHT22;9834;48.076;11.878;2022-08-20T03:05:30;16.70;99.90
19397;DHT22;9834;48.076;11.878;2022-08-20T03:07:57;16.70;99.90
19397;DHT22;9834;48.076;11.878;2022-08-20T03:10:26;16.70;99.90
19397;DHT22;9834;48.076;11.878;2022-08-20T03:12:53;16.70;99.90
19397;DHT22;9834;48.076;11.878;2022-08-20T03:15:20;16.70;99.90
19397;DHT22;9834;48.076;11.878;2022-08-20T03:17:48;16.80;99.90
19397;DHT22;9834;48.076;11.878;2022-08-20T03:20:15;16.80;99.90
19397;DHT22;9834;48.076;11.878;2022-08-20T03:22:43;16.80;99.90
19397;DHT22;9834;48.076;11.878;2022-08-20T03:25:11;16.70;99.90
19397;DHT22;9834;48.076;11.878;2022-08-20T03:27:38;16.80;99.90
19397;DHT22;9834;48.076;11.878;2022-08-20T03:30:13;16.80;99.90
19397;DHT22;9834;48.076;11.878;2022-08-20T03:32:42;16.80;99.90
19397;DHT22;9834;48.076;11.878;2022-08-20T03:35:12;16.70;99.90
19397;DHT22;9834;48.076;11.878;2022-08-20T03:37:40;16.70;99.90
19397;DHT22;9834;48.076;11.878;2022-08-20T03:40:11;16.70;99.90
19397;DHT22;9834;48.076;11.878;2022-08-20T03:42:38;16.70;99.90
19397;DHT22;9834;48.076;11.878;2022-08-20T03:45:08;16.70;99.90
19397;DHT22;9834;48.076;11.878;2022-08-20T03:47:36;16.70;99.90
19397;DHT22;9834;48.076;11.878;2022-08-20T03:50:05;16.70;99.90
19397;DHT22;9834;48.076;11.878;2022-08-20T03:52:32;16.70;99.90
19397;DHT22;9834;48.076;11.878;2022-08-20T03:54:59;16.70;99.90
19397;DHT22;9834;48.076;11.878;2022-08-20T03:57:28;16.70;99.90
19397;DHT22;9834;48.076;11.878;2022-08-20T03:59:55;16.70;99.90
19397;DHT22;9834;48.076;11.878;2022-08-20T04:02:25;16.70;99.90
19397;DHT22;9834;48.076;11.878;2022-08-20T04:04:53;16.70;99.90
19397;DHT22;9834;48.076;11.878;2022-08-20T04:07:23;16.70;99.90
19397;DHT22;9834;48.076;11.878;2022-08-20T04:09:52;16.70;99.90
19397;DHT22;9834;48.076;11.878;2022-08-20T04:12:20;16.70;99.90
19397;DHT22;9834;48.076;11.878;2022-08-20T04:14:51;16.70;99.90
19397;DHT22;9834;48.076;11.878;2022-08-20T04:17:20;16.70;99.90
19397;DHT22;9834;48.076;11.878;2022-08-20T04:19:51;16.60;99.90
19397;DHT22;9834;48.076;11.878;2022-08-20T04:22:18;16.60;99.90
19397;DHT22;9834;48.076;11.878;2022-08-20T04:24:45;16.60;99.90
19397;DHT22;9834;48.076;11.878;2022-08-20T04:27:13;16.60;99.90
19397;DHT22;9834;48.076;11.878;2022-08-20T04:29:40;16.60;99.90
19397;DHT22;9834;48.076;11.878;2022-08-20T04:32:12;16.60;99.90
19397;DHT22;9834;48.076;11.878;2022-08-20T04:34:41;16.60;99.90
19397;DHT22;9834;48.076;11.878;2022-08-20T04:37:09;16.60;99.90
19397;DHT22;9834;48.076;11.878;2022-08-20T04:39:38;16.60;99.90
19397;DHT22;9834;48.076;11.878;2022-08-20T04:42:05;16.60;99.90
19397;DHT22;9834;48.076;11.878;2022-08-20T04:44:31;16.60;99.90
19397;DHT22;9834;48.076;11.878;2022-08-20T04:46:58;16.60;99.90
19397;DHT22;9834;48.076;11.878;2022-08-20T04:49:38;16.60;99.90
19397;DHT22;9834;48.076;11.878;2022-08-20T04:52:05;16.60;99.90
19397;DHT22;9834;48.076;11.878;2022-08-20T04:54:38;16.70;99.90
19397;DHT22;9834;48.076;11.878;2022-08-20T04:57:05;16.80;99.90
19397;DHT22;9834;48.076;11.878;2022-08-20T04:59:33;16.70;99.90
19397;DHT22;9834;48.076;11.878;2022-08-20T05:02:00;16.70;99.90
19397;DHT22;9834;48.076;11.878;2022-08-20T05:04:27;16.70;99.90
19397;DHT22;9834;48.076;11.878;2022-08-20T05:06:55;16.80;99.90
19397;DHT22;9834;48.076;11.878;2022-08-20T05:09:22;16.80;99.90
19397;DHT22;9834;48.076;11.878;2022-08-20T05:11:52;16.80;99.90
19397;DHT22;9834;48.076;11.878;2022-08-20T05:14:19;16.80;99.90
19397;DHT22;9834;48.076;11.878;2022-08-20T05:16:46;16.80;99.90
19397;DHT22;9834;48.076;11.878;2022-08-20T05:19:17;16.80;99.90
19397;DHT22;9834;48.076;11.878;2022-08-20T05:21:47;16.80;99.90
19397;DHT22;9834;48.076;11.878;2022-08-20T05:24:19;16.90;99.90
19397;DHT22;9834;48.076;11.878;2022-08-20T05:26:46;16.80;99.90
19397;DHT22;9834;48.076;11.878;2022-08-20T05:29:13;16.90;99.90
19397;DHT22;9834;48.076;11.878;2022-08-20T05:31:40;16.90;99.90
19397;DHT22;9834;48.076;11.878;2022-08-20T05:34:11;16.90;99.90
19397;DHT22;9834;48.076;11.878;2022-08-20T05:36:42;16.90;99.90
19397;DHT22;9834;48.076;11.878;2022-08-20T05:39:10;16.90;99.90
19397;DHT22;9834;48.076;11.878;2022-08-20T05:41:39;17.00;99.90
19397;DHT22;9834;48.076;11.878;2022-08-20T05:44:07;16.90;99.90
19397;DHT22;9834;48.076;11.878;2022-08-20T05:46:39;17.00;99.90
19397;DHT22;9834;48.076;11.878;2022-08-20T05:49:08;17.00;99.90
19397;DHT22;9834;48.076;11.878;2022-08-20T05:51:38;17.00;99.90
19397;DHT22;9834;48.076;11.878;2022-08-20T05:54:06;17.00;99.90
19397;DHT22;9834;48.076;11.878;2022-08-20T05:56:35;17.10;99.90
19397;DHT22;9834;48.076;11.878;2022-08-20T05:59:06;17.10;99.90
19397;DHT22;9834;48.076;11.878;2022-08-20T06:01:35;17.10;99.90
19397;DHT22;9834;48.076;11.878;2022-08-20T06:04:03;17.20;99.90
19397;DHT22;9834;48.076;11.878;2022-08-20T06:06:49;17.20;99.90
19397;DHT22;9834;48.076;11.878;2022-08-20T06:09:18;17.20;99.90
19397;DHT22;9834;48.076;11.878;2022-08-20T06:11:46;17.20;99.90
19397;DHT22;9834;48.076;11.878;2022-08-20T06:14:14;17.20;99.90
19397;DHT22;9834;48.076;11.878;2022-08-20T06:16:42;17.30;99.90
19397;DHT22;9834;48.076;11.878;2022-08-20T06:19:10;17.30;99.90
19397;DHT22;9834;48.076;11.878;2022-08-20T06:21:37;17.30;99.90
19397;DHT22;9834;48.076;11.878;2022-08-20T06:24:05;17.30;99.90
19397;DHT22;9834;48.076;11.878;2022-08-20T06:26:32;17.30;99.90
19397;DHT22;9834;48.076;11.878;2022-08-20T06:29:00;17.20;99.90
19397;DHT22;9834;48.076;11.878;2022-08-20T06:31:29;17.20;99.90
19397;DHT22;9834;48.076;11.878;2022-08-20T06:33:56;17.20;99.90
19397;DHT22;9834;48.076;11.878;2022-08-20T06:36:23;17.20;99.90
19397;DHT22;9834;48.076;11.878;2022-08-20T06:38:50;17.20;99.90
19397;DHT22;9834;48.076;11.878;2022-08-20T06:41:19;17.20;99.90
19397;DHT22;9834;48.076;11.878;2022-08-20T06:43:46;17.20;99.90
19397;DHT22;9834;48.076;11.878;2022-08-20T06:46:13;17.30;99.90
19397;DHT22;9834;48.076;11.878;2022-08-20T06:48:42;17.20;99.90
19397;DHT22;9834;48.076;11.878;2022-08-20T06:51:10;17.30;99.90
19397;DHT22;9834;48.076;11.878;2022-08-20T06:53:40;17.40;99.90
19397;DHT22;9834;48.076;11.878;2022-08-20T06:56:07;17.40;99.90
19397;DHT22;9834;48.076;11.878;2022-08-20T06:58:34;17.40;99.90
19397;DHT22;9834;48.076;11.878;2022-08-20T07:01:02;17.40;99.90
19397;DHT22;9834;48.076;11.878;2022-08-20T07:03:29;17.50;99.90
19397;DHT22;9834;48.076;11.878;2022-08-20T07:05:58;17.70;99.90
19397;DHT22;9834;48.076;11.878;2022-08-20T07:08:25;17.70;99.90
19397;DHT22;9834;48.076;11.878;2022-08-20T07:10:52;17.70;99.90
19397;DHT22;9834;48.076;11.878;2022-08-20T07:13:19;17.70;99.90
19397;DHT22;9834;48.076;11.878;2022-08-20T07:15:47;17.70;99.90
19397;DHT22;9834;48.076;11.878;2022-08-20T07:18:14;17.80;99.90
19397;DHT22;9834;48.076;11.878;2022-08-20T07:20:42;17.80;99.90
19397;DHT22;9834;48.076;11.878;2022-08-20T07:23:11;17.70;99.90
19397;DHT22;9834;48.076;11.878;2022-08-20T07:25:38;17.60;99.90
19397;DHT22;9834;48.076;11.878;2022-08-20T07:28:10;17.60;99.90
19397;DHT22;9834;48.076;11.878;2022-08-20T07:30:40;17.60;99.90
19397;DHT22;9834;48.076;11.878;2022-08-20T07:33:25;17.60;99.90
19397;DHT22;9834;48.076;11.878;2022-08-20T07:35:55;17.60;99.90
19397;DHT22;9834;48.076;11.878;2022-08-20T07:38:24;17.70;99.90
19397;DHT22;9834;48.076;11.878;2022-08-20T07:40:53;17.60;99.90
19397;DHT22;9834;48.076;11.878;2022-08-20T07:43:21;17.60;99.90
19397;DHT22;9834;48.076;11.878;2022-08-20T07:45:50;17.60;99.90
19397;DHT22;9834;48.076;11.878;2022-08-20T07:48:21;17.60;99.90
19397;DHT22;9834;48.076;11.878;2022-08-20T07:50:49;17.60;99.90
19397;DHT22;9834;48.076;11.878;2022-08-20T07:53:16;17.50;99.90
19397;DHT22;9834;48.076;11.878;2022-08-20T07:55:44;17.50;99.90
19397;DHT22;9834;48.076;11.878;2022-08-20T07:58:13;17.40;99.90
19397;DHT22;9834;48.076;11.878;2022-08-20T08:00:42;17.50;99.90
19397;DHT22;9834;48.076;11.878;2022-08-20T08:06:34;17.70;99.90
19397;DHT22;9834;48.076;11.878;2022-08-20T08:09:06;17.70;99.90
19397;DHT22;9834;48.076;11.878;2022-08-20T08:11:42;17.70;99.90
19397;DHT22;9834;48.076;11.878;2022-08-20T08:14:10;17.70;99.90
19397;DHT22;9834;48.076;11.878;2022-08-20T08:16:40;17.70;99.90
19397;DHT22;9834;48.076;11.878;2022-08-20T08:19:14;17.80;99.90
19397;DHT22;9834;48.076;11.878;2022-08-20T08:21:41;17.70;99.90
19397;DHT22;9834;48.076;11.878;2022-08-20T08:24:10;17.70;99.90
19397;DHT22;9834;48.076;11.878;2022-08-20T08:26:40;17.80;99.90
19397;DHT22;9834;48.076;11.878;2022-08-20T08:29:07;17.70;99.90
19397;DHT22;9834;48.076;11.878;2022-08-20T08:31:37;17.70;99.90
19397;DHT22;9834;48.076;11.878;2022-08-20T08:34:05;17.70;99.90
19397;DHT22;9834;48.076;11.878;2022-08-20T08:36:34;17.60;99.90
19397;DHT22;9834;48.076;11.878;2022-08-20T08:39:02;17.50;99.90
19397;DHT22;9834;48.076;11.878;2022-08-20T08:41:32;17.50;99.90
19397;DHT22;9834;48.076;11.878;2022-08-20T08:44:05;17.50;99.90
19397;DHT22;9834;48.076;11.878;2022-08-20T08:46:38;17.50;99.90
19397;DHT22;9834;48.076;11.878;2022-08-20T08:49:07;17.50;99.90
19397;DHT22;9834;48.076;11.878;2022-08-20T08:51:40;17.50;99.90
19397;DHT22;9834;48.076;11.878;2022-08-20T08:54:11;17.50;99.90
19397;DHT22;9834;48.076;11.878;2022-08-20T09:00:19;17.40;99.90
19397;DHT22;9834;48.076;11.878;2022-08-20T09:02:56;17.50;99.90
19397;DHT22;9834;48.076;11.878;2022-08-20T09:05:30;17.50;99.90
19397;DHT22;9834;48.076;11.878;2022-08-20T09:08:04;17.60;99.90
19397;DHT22;9834;48.076;11.878;2022-08-20T09:10:32;17.70;99.90
19397;DHT22;9834;48.076;11.878;2022-08-20T09:12:59;17.70;99.90
19397;DHT22;9834;48.076;11.878;2022-08-20T09:15:28;17.70;99.90
19397;DHT22;9834;48.076;11.878;2022-08-20T09:17:58;17.80;99.90
19397;DHT22;9834;48.076;11.878;2022-08-20T09:20:25;17.80;99.90
19397;DHT22;9834;48.076;11.878;2022-08-20T09:22:54;17.70;99.90
19397;DHT22;9834;48.076;11.878;2022-08-20T09:25:22;17.70;99.90
19397;DHT22;9834;48.076;11.878;2022-08-20T09:27:49;17.60;99.90
19397;DHT22;9834;48.076;11.878;2022-08-20T09:30:16;17.60;99.90
19397;DHT22;9834;48.076;11.878;2022-08-20T09:32:44;17.60;99.90
19397;DHT22;9834;48.076;11.878;2022-08-20T09:35:12;17.60;99.90
19397;DHT22;9834;48.076;11.878;2022-08-20T09:37:40;17.60;99.90
19397;DHT22;9834;48.076;11.878;2022-08-20T09:40:08;17.60;99.90
19397;DHT22;9834;48.076;11.878;2022-08-20T09:42:37;17.60;99.90
19397;DHT22;9834;48.076;11.878;2022-08-20T09:45:05;17.60;99.90
19397;DHT22;9834;48.076;11.878;2022-08-20T09:47:33;17.40;99.90
19397;DHT22;9834;48.076;11.878;2022-08-20T09:50:02;17.40;99.90
19397;DHT22;9834;48.076;11.878;2022-08-20T09:52:33;17.30;99.90
19397;DHT22;9834;48.076;11.878;2022-08-20T09:55:04;17.10;99.90
19397;DHT22;9834;48.076;11.878;2022-08-20T09:57:35;17.00;99.90
19397;DHT22;9834;48.076;11.878;2022-08-20T10:00:05;17.10;99.90
19397;DHT22;9834;48.076;11.878;2022-08-20T10:02:34;17.30;99.90
19397;DHT22;9834;48.076;11.878;2022-08-20T10:05:03;17.60;99.90
19397;DHT22;9834;48.076;11.878;2022-08-20T10:07:31;17.80;99.90
19397;DHT22;9834;48.076;11.878;2022-08-20T10:09:59;18.00;99.90
19397;DHT22;9834;48.076;11.878;2022-08-20T10:12:26;18.00;99.90
19397;DHT22;9834;48.076;11.878;2022-08-20T10:14:53;18.10;99.90
19397;DHT22;9834;48.076;11.878;2022-08-20T10:17:21;18.10;99.90
19397;DHT22;9834;48.076;11.878;2022-08-20T10:19:50;18.30;99.90
19397;DHT22;9834;48.076;11.878;2022-08-20T10:22:19;18.50;99.90
19397;DHT22;9834;48.076;11.878;2022-08-20T10:24:48;18.50;99.90
19397;DHT22;9834;48.076;11.878;2022-08-20T10:27:15;18.50;99.90
19397;DHT22;9834;48.076;11.878;2022-08-20T10:29:44;18.40;99.90
19397;DHT22;9834;48.076;11.878;2022-08-20T10:32:13;18.40;99.90
19397;DHT22;9834;48.076;11.878;2022-08-20T10:34:43;18.40;99.90
19397;DHT22;9834;48.076;11.878;2022-08-20T10:37:14;18.50;99.90
19397;DHT22;9834;48.076;11.878;2022-08-20T10:39:49;18.60;99.90
19397;DHT22;9834;48.076;11.878;2022-08-20T10:42:24;18.60;99.90
19397;DHT22;9834;48.076;11.878;2022-08-20T10:44:52;18.60;99.90
19397;DHT22;9834;48.076;11.878;2022-08-20T10:47:23;18.40;99.90
19397;DHT22;9834;48.076;11.878;2022-08-20T10:49:58;18.30;99.90
19397;DHT22;9834;48.076;11.878;2022-08-20T10:52:26;18.30;99.90
19397;DHT22;9834;48.076;11.878;2022-08-20T10:54:55;18.30;99.90
19397;DHT22;9834;48.076;11.878;2022-08-20T10:57:23;18.40;99.90
19397;DHT22;9834;48.076;11.878;2022-08-20T10:59:52;18.60;99.90
19397;DHT22;9834;48.076;11.878;2022-08-20T11:02:25;18.80;99.90
19397;DHT22;9834;48.076;11.878;2022-08-20T11:04:55;18.70;99.90
19397;DHT22;9834;48.076;11.878;2022-08-20T11:07:32;18.70;99.90
19397;DHT22;9834;48.076;11.878;2022-08-20T11:10:00;18.70;99.90
19397;DHT22;9834;48.076;11.878;2022-08-20T11:12:31;18.70;99.90
19397;DHT22;9834;48.076;11.878;2022-08-20T11:14:58;18.70;99.90
19397;DHT22;9834;48.076;11.878;2022-08-20T11:17:28;18.80;99.90
19397;DHT22;9834;48.076;11.878;2022-08-20T11:20:02;18.90;99.90
19397;DHT22;9834;48.076;11.878;2022-08-20T11:22:29;18.80;99.90
19397;DHT22;9834;48.076;11.878;2022-08-20T11:24:57;18.80;99.90
19397;DHT22;9834;48.076;11.878;2022-08-20T11:27:28;18.70;99.90
19397;DHT22;9834;48.076;11.878;2022-08-20T11:30:00;18.90;99.90
19397;DHT22;9834;48.076;11.878;2022-08-20T11:32:29;19.20;99.90
19397;DHT22;9834;48.076;11.878;2022-08-20T11:34:56;19.50;99.90
19397;DHT22;9834;48.076;11.878;2022-08-20T11:37:26;19.60;99.90
19397;DHT22;9834;48.076;11.878;2022-08-20T11:39:55;19.80;99.90
19397;DHT22;9834;48.076;11.878;2022-08-20T11:42:22;20.00;99.90
19397;DHT22;9834;48.076;11.878;2022-08-20T11:44:52;20.10;99.90
19397;DHT22;9834;48.076;11.878;2022-08-20T11:47:21;20.30;99.90
19397;DHT22;9834;48.076;11.878;2022-08-20T11:53:13;20.10;99.90
19397;DHT22;9834;48.076;11.878;2022-08-20T11:55:40;20.20;99.90
19397;DHT22;9834;48.076;11.878;2022-08-20T11:58:09;20.30;99.90
19397;DHT22;9834;48.076;11.878;2022-08-20T12:00:38;20.30;99.90
19397;DHT22;9834;48.076;11.878;2022-08-20T12:03:06;20.40;99.90
19397;DHT22;9834;48.076;11.878;2022-08-20T12:05:34;20.50;99.90
19397;DHT22;9834;48.076;11.878;2022-08-20T12:08:01;20.60;99.90
19397;DHT22;9834;48.076;11.878;2022-08-20T12:10:29;20.60;99.90
19397;DHT22;9834;48.076;11.878;2022-08-20T12:12:58;20.90;99.90
19397;DHT22;9834;48.076;11.878;2022-08-20T12:15:25;20.90;99.90
19397;DHT22;9834;48.076;11.878;2022-08-20T12:17:54;20.80;99.90
19397;DHT22;9834;48.076;11.878;2022-08-20T12:20:22;20.50;99.90
19397;DHT22;9834;48.076;11.878;2022-08-20T12:22:49;20.50;99.90
19397;DHT22;9834;48.076;11.878;2022-08-20T12:25:17;20.40;99.90
19397;DHT22;9834;48.076;11.878;2022-08-20T12:27:45;20.30;99.90
19397;DHT22;9834;48.076;11.878;2022-08-20T12:30:15;20.30;99.90
19397;DHT22;9834;48.076;11.878;2022-08-20T12:32:42;20.10;99.90
19397;DHT22;9834;48.076;11.878;2022-08-20T12:35:12;20.10;99.90
19397;DHT22;9834;48.076;11.878;2022-08-20T12:37:40;20.10;99.90
19397;DHT22;9834;48.076;11.878;2022-08-20T12:40:12;20.00;99.90
19397;DHT22;9834;48.076;11.878;2022-08-20T12:42:42;20.00;99.90
19397;DHT22;9834;48.076;11.878;2022-08-20T12:45:10;20.00;99.90
19397;DHT22;9834;48.076;11.878;2022-08-20T12:47:39;20.00;99.90
19397;DHT22;9834;48.076;11.878;2022-08-20T12:50:12;20.00;99.90
19397;DHT22;9834;48.076;11.878;2022-08-20T12:52:42;19.90;99.90
19397;DHT22;9834;48.076;11.878;2022-08-20T12:55:17;20.00;99.90
19397;DHT22;9834;48.076;11.878;2022-08-20T12:57:49;20.00;99.90
19397;DHT22;9834;48.076;11.878;2022-08-20T13:00:18;20.10;99.90
19397;DHT22;9834;48.076;11.878;2022-08-20T13:02:47;20.10;99.90
19397;DHT22;9834;48.076;11.878;2022-08-20T13:05:16;20.40;99.90
19397;DHT22;9834;48.076;11.878;2022-08-20T13:07:44;20.70;99.90
19397;DHT22;9834;48.076;11.878;2022-08-20T13:10:16;21.00;99.90
19397;DHT22;9834;48.076;11.878;2022-08-20T13:12:43;21.30;99.90
19397;DHT22;9834;48.076;11.878;2022-08-20T13:15:11;21.50;99.90
19397;DHT22;9834;48.076;11.878;2022-08-20T13:17:38;21.50;99.90
19397;DHT22;9834;48.076;11.878;2022-08-20T13:20:07;21.30;99.90
19397;DHT22;9834;48.076;11.878;2022-08-20T13:22:36;21.20;99.90
19397;DHT22;9834;48.076;11.878;2022-08-20T13:25:04;21.00;99.90
19397;DHT22;9834;48.076;11.878;2022-08-20T13:27:31;21.00;99.90
19397;DHT22;9834;48.076;11.878;2022-08-20T13:29:58;21.20;99.90
19397;DHT22;9834;48.076;11.878;2022-08-20T13:32:26;21.30;99.90
19397;DHT22;9834;48.076;11.878;2022-08-20T13:34:57;21.10;99.90
19397;DHT22;9834;48.076;11.878;2022-08-20T13:37:28;21.20;99.90
19397;DHT22;9834;48.076;11.878;2022-08-20T13:39:57;21.20;99.90
19397;DHT22;9834;48.076;11.878;2022-08-20T13:42:26;21.30;99.90
19397;DHT22;9834;48.076;11.878;2022-08-20T13:44:53;21.40;99.90
19397;DHT22;9834;48.076;11.878;2022-08-20T13:47:23;21.60;99.90
19397;DHT22;9834;48.076;11.878;2022-08-20T13:49:54;21.60;99.90
19397;DHT22;9834;48.076;11.878;2022-08-20T13:52:22;21.50;99.90
19397;DHT22;9834;48.076;11.878;2022-08-20T13:54:49;21.60;99.90
19397;DHT22;9834;48.076;11.878;2022-08-20T13:57:22;21.80;99.90
19397;DHT22;9834;48.076;11.878;2022-08-20T13:59:51;22.00;99.90
19397;DHT22;9834;48.076;11.878;2022-08-20T14:02:19;22.30;99.90
19397;DHT22;9834;48.076;11.878;2022-08-20T14:04:47;22.20;99.90
19397;DHT22;9834;48.076;11.878;2022-08-20T14:07:16;22.40;99.90
19397;DHT22;9834;48.076;11.878;2022-08-20T14:09:44;22.70;99.90
19397;DHT22;9834;48.076;11.878;2022-08-20T14:12:16;22.80;99.90
19397;DHT22;9834;48.076;11.878;2022-08-20T14:14:43;23.10;99.90
19397;DHT22;9834;48.076;11.878;2022-08-20T14:17:13;23.40;99.90
19397;DHT22;9834;48.076;11.878;2022-08-20T14:19:40;23.60;99.90
19397;DHT22;9834;48.076;11.878;2022-08-20T14:22:07;23.70;99.90
19397;DHT22;9834;48.076;11.878;2022-08-20T14:24:37;23.50;99.90
19397;DHT22;9834;48.076;11.878;2022-08-20T14:27:05;23.40;99.90
19397;DHT22;9834;48.076;11.878;2022-08-20T14:29:36;23.20;99.90
19397;DHT22;9834;48.076;11.878;2022-08-20T14:32:04;23.20;99.90
19397;DHT22;9834;48.076;11.878;2022-08-20T14:34:32;23.10;99.90
19397;DHT22;9834;48.076;11.878;2022-08-20T14:37:09;22.80;99.90
19397;DHT22;9834;48.076;11.878;2022-08-20T14:39:37;22.50;99.90
19397;DHT22;9834;48.076;11.878;2022-08-20T14:42:04;22.20;99.90
19397;DHT22;9834;48.076;11.878;2022-08-20T14:44:31;21.80;99.90
19397;DHT22;9834;48.076;11.878;2022-08-20T14:47:10;21.40;99.90
19397;DHT22;9834;48.076;11.878;2022-08-20T14:49:38;21.10;99.90
19397;DHT22;9834;48.076;11.878;2022-08-20T14:52:05;20.90;99.90
19397;DHT22;9834;48.076;11.878;2022-08-20T14:54:33;20.70;99.90
19397;DHT22;9834;48.076;11.878;2022-08-20T14:57:00;20.50;99.90
19397;DHT22;9834;48.076;11.878;2022-08-20T14:59:27;20.30;99.90
19397;DHT22;9834;48.076;11.878;2022-08-20T15:02:04;20.30;99.90
19397;DHT22;9834;48.076;11.878;2022-08-20T15:04:33;20.10;99.90
19397;DHT22;9834;48.076;11.878;2022-08-20T15:07:00;19.90;99.90
19397;DHT22;9834;48.076;11.878;2022-08-20T15:12:50;19.30;99.90
19397;DHT22;9834;48.076;11.878;2022-08-20T15:15:17;19.30;99.90
19397;DHT22;9834;48.076;11.878;2022-08-20T15:17:47;19.00;99.90
19397;DHT22;9834;48.076;11.878;2022-08-20T15:20:18;18.50;99.90
19397;DHT22;9834;48.076;11.878;2022-08-20T15:23:00;18.00;99.90
19397;DHT22;9834;48.076;11.878;2022-08-20T15:25:31;17.60;99.90
19397;DHT22;9834;48.076;11.878;2022-08-20T15:28:01;17.30;99.90
19397;DHT22;9834;48.076;11.878;2022-08-20T15:30:29;17.00;99.90
19397;DHT22;9834;48.076;11.878;2022-08-20T15:32:58;16.90;99.90
19397;DHT22;9834;48.076;11.878;2022-08-20T15:35:26;16.80;99.90
19397;DHT22;9834;48.076;11.878;2022-08-20T15:37:55;16.80;99.90
19397;DHT22;9834;48.076;11.878;2022-08-20T15:40:24;16.70;99.90
19397;DHT22;9834;48.076;11.878;2022-08-20T15:42:52;16.70;99.90
19397;DHT22;9834;48.076;11.878;2022-08-20T15:45:19;16.60;99.90
19397;DHT22;9834;48.076;11.878;2022-08-20T15:47:49;16.60;99.90
19397;DHT22;9834;48.076;11.878;2022-08-20T15:50:29;16.60;99.90
19397;DHT22;9834;48.076;11.878;2022-08-20T15:53:03;16.50;99.90
19397;DHT22;9834;48.076;11.878;2022-08-20T15:55:32;16.50;99.90